sensor_id;sensor_type;location;lat;lon;timestamp;pressure;altitude;pressure_sealevel;temperature;humidity
3250;BME280;1637;42.020;23.992;2023-05-07T00:00:22;93098.56;;;8.98;100.00
3250;BME280;1637;42.020;23.992;2023-05-07T00:02:49;93103.16;;;8.62;100.00
3250;BME280;1637;42.020;23.992;2023-05-07T00:05:18;93100.88;;;8.64;100.00
3250;BME280;1637;42.020;23.992;2023-05-07T00:07:44;93102.78;;;8.60;100.00
3250;BME280;1637;42.020;23.992;2023-05-07T00:10:11;93103.19;;;8.87;100.00
3250;BME280;1637;42.020;23.992;2023-05-07T00:12:40;93098.19;;;9.17;100.00
3250;BME280;1637;42.020;23.992;2023-05-07T00:15:07;93104.28;;;9.32;100.00
3250;BME280;1637;42.020;23.992;2023-05-07T00:17:35;93106.53;;;9.44;100.00
3250;BME280;1637;42.020;23.992;2023-05-07T00:20:02;93109.97;;;9.55;100.00
3250;BME280;1637;42.020;23.992;2023-05-07T00:22:31;93101.94;;;9.55;100.00
3250;BME280;1637;42.020;23.992;2023-05-07T00:24:58;93102.72;;;9.52;100.00
3250;BME280;1637;42.020;23.992;2023-05-07T00:27:25;93094.66;;;9.59;100.00
3250;BME280;1637;42.020;23.992;2023-05-07T00:29:52;93101.63;;;9.25;100.00
3250;BME280;1637;42.020;23.992;2023-05-07T00:32:19;93098.19;;;9.03;100.00
3250;BME280;1637;42.020;23.992;2023-05-07T00:34:46;93089.81;;;9.08;100.00
3250;BME280;1637;42.020;23.992;2023-05-07T00:37:12;93094.31;;;9.36;100.00
3250;BME280;1637;42.020;23.992;2023-05-07T00:39:41;93098.91;;;9.53;100.00
3250;BME280;1637;42.020;23.992;2023-05-07T00:42:07;93091.22;;;9.62;100.00
3250;BME280;1637;42.020;23.992;2023-05-07T00:44:34;93091.91;;;9.84;100.00
3250;BME280;1637;42.020;23.992;2023-05-07T00:47:02;93088.66;;;9.06;100.00
3250;BME280;1637;42.020;23.992;2023-05-07T00:49:37;93099.72;;;9.22;100.00
3250;BME280;1637;42.020;23.992;2023-05-07T00:52:05;93097.78;;;9.33;100.00
3250;BME280;1637;42.020;23.992;2023-05-07T00:54:33;93082.84;;;9.50;100.00
3250;BME280;1637;42.020;23.992;2023-05-07T00:57:03;93105.00;;;9.43;100.00
3250;BME280;1637;42.020;23.992;2023-05-07T00:59:30;93105.00;;;9.47;100.00
3250;BME280;1637;42.020;23.992;2023-05-07T01:01:58;93105.44;;;9.31;100.00
3250;BME280;1637;42.020;23.992;2023-05-07T01:04:26;93102.38;;;9.15;100.00
3250;BME280;1637;42.020;23.992;2023-05-07T01:06:53;93108.50;;;8.98;100.00
3250;BME280;1637;42.020;23.992;2023-05-07T01:09:22;93111.19;;;9.08;100.00
3250;BME280;1637;42.020;23.992;2023-05-07T01:11:50;93122.25;;;8.96;100.00
3250;BME280;1637;42.020;23.992;2023-05-07T01:14:19;93120.34;;;8.82;100.00
3250;BME280;1637;42.020;23.992;2023-05-07T01:16:46;93100.88;;;8.92;100.00
3250;BME280;1637;42.020;23.992;2023-05-07T01:19:15;93108.13;;;8.95;100.00
3250;BME280;1637;42.020;23.992;2023-05-07T01:21:45;93107.34;;;8.99;100.00
3250;BME280;1637;42.020;23.992;2023-05-07T01:24:14;93117.28;;;9.12;100.00
3250;BME280;1637;42.020;23.992;2023-05-07T01:26:42;93104.69;;;9.09;100.00
3250;BME280;1637;42.020;23.992;2023-05-07T01:29:09;93114.22;;;8.82;100.00
3250;BME280;1637;42.020;23.992;2023-05-07T01:31:36;93116.13;;;8.81;100.00
3250;BME280;1637;42.020;23.992;2023-05-07T01:34:04;93108.13;;;8.88;100.00
3250;BME280;1637;42.020;23.992;2023-05-07T01:36:34;93105.06;;;8.79;100.00
3250;BME280;1637;42.020;23.992;2023-05-07T01:39:02;93105.84;;;9.08;100.00
3250;BME280;1637;42.020;23.992;2023-05-07T01:41:31;93107.31;;;9.41;100.00
3250;BME280;1637;42.020;23.992;2023-05-07T01:43:58;93109.59;;;9.53;100.00
3250;BME280;1637;42.020;23.992;2023-05-07T01:46:26;93106.13;;;9.60;100.00
3250;BME280;1637;42.020;23.992;2023-05-07T01:48:53;93097.78;;;9.15;100.00
3250;BME280;1637;42.020;23.992;2023-05-07T01:51:21;93098.56;;;9.16;100.00
3250;BME280;1637;42.020;23.992;2023-05-07T01:53:48;93107.34;;;9.20;100.00
3250;BME280;1637;42.020;23.992;2023-05-07T01:56:16;93109.28;;;9.12;100.00
3250;BME280;1637;42.020;23.992;2023-05-07T01:58:45;93098.56;;;9.26;100.00
3250;BME280;1637;42.020;23.992;2023-05-07T02:01:13;93089.78;;;9.33;100.00
3250;BME280;1637;42.020;23.992;2023-05-07T02:03:40;93092.75;;;9.56;100.00
3250;BME280;1637;42.020;23.992;2023-05-07T02:06:07;93083.63;;;9.47;100.00
3250;BME280;1637;42.020;23.992;2023-05-07T02:08:33;93082.09;;;9.53;100.00
3250;BME280;1637;42.020;23.992;2023-05-07T02:11:00;93077.91;;;9.41;100.00
3250;BME280;1637;42.020;23.992;2023-05-07T02:13:29;93082.47;;;9.44;100.00
3250;BME280;1637;42.020;23.992;2023-05-07T02:15:58;93082.84;;;9.53;100.00
3250;BME280;1637;42.020;23.992;2023-05-07T02:18:25;93076.38;;;9.47;100.00
3250;BME280;1637;42.020;23.992;2023-05-07T02:20:52;93072.94;;;9.50;100.00
3250;BME280;1637;42.020;23.992;2023-05-07T02:23:18;93083.25;;;9.41;100.00
3250;BME280;1637;42.020;23.992;2023-05-07T02:25:45;93074.50;;;9.26;100.00
3250;BME280;1637;42.020;23.992;2023-05-07T02:28:12;93072.16;;;9.46;100.00
3250;BME280;1637;42.020;23.992;2023-05-07T02:30:39;93068.28;;;9.61;100.00
3250;BME280;1637;42.020;23.992;2023-05-07T02:33:08;93075.53;;;9.64;100.00
3250;BME280;1637;42.020;23.992;2023-05-07T02:35:35;93077.91;;;9.48;100.00
3250;BME280;1637;42.020;23.992;2023-05-07T02:38:01;93040.91;;;9.15;100.00
3250;BME280;1637;42.020;23.992;2023-05-07T02:40:28;93071.44;;;9.21;100.00
3250;BME280;1637;42.020;23.992;2023-05-07T02:42:55;93067.63;;;9.25;100.00
3250;BME280;1637;42.020;23.992;2023-05-07T02:45:22;93066.09;;;9.17;100.00
3250;BME280;1637;42.020;23.992;2023-05-07T02:47:49;93063.09;;;9.01;100.00
3250;BME280;1637;42.020;23.992;2023-05-07T02:50:17;93062.72;;;8.88;100.00
3250;BME280;1637;42.020;23.992;2023-05-07T02:52:44;93057.38;;;8.78;100.00
3250;BME280;1637;42.020;23.992;2023-05-07T02:55:11;93050.88;;;9.04;100.00
3250;BME280;1637;42.020;23.992;2023-05-07T02:57:38;93050.91;;;8.89;100.00
3250;BME280;1637;42.020;23.992;2023-05-07T03:00:12;93064.63;;;8.67;100.00
3250;BME280;1637;42.020;23.992;2023-05-07T03:02:39;93060.06;;;8.60;100.00
3250;BME280;1637;42.020;23.992;2023-05-07T03:05:06;93066.94;;;8.89;100.00
3250;BME280;1637;42.020;23.992;2023-05-07T03:07:34;93063.09;;;8.83;100.00
3250;BME280;1637;42.020;23.992;2023-05-07T03:10:01;93067.28;;;8.77;100.00
3250;BME280;1637;42.020;23.992;2023-05-07T03:12:29;93061.97;;;8.70;100.00
3250;BME280;1637;42.020;23.992;2023-05-07T03:14:56;93057.00;;;8.76;100.00
3250;BME280;1637;42.020;23.992;2023-05-07T03:17:23;93059.69;;;8.90;100.00
3250;BME280;1637;42.020;23.992;2023-05-07T03:19:50;93059.31;;;8.70;100.00
3250;BME280;1637;42.020;23.992;2023-05-07T03:22:17;93056.59;;;8.52;100.00
3250;BME280;1637;42.020;23.992;2023-05-07T03:24:45;93054.31;;;8.54;100.00
3250;BME280;1637;42.020;23.992;2023-05-07T03:27:12;93055.06;;;8.37;100.00
3250;BME280;1637;42.020;23.992;2023-05-07T03:29:39;93057.31;;;8.32;100.00
3250;BME280;1637;42.020;23.992;2023-05-07T03:32:05;93046.28;;;8.33;100.00
3250;BME280;1637;42.020;23.992;2023-05-07T03:34:32;93058.50;;;8.38;100.00
3250;BME280;1637;42.020;23.992;2023-05-07T03:37:00;93057.78;;;8.66;100.00
3250;BME280;1637;42.020;23.992;2023-05-07T03:39:27;93039.06;;;8.80;100.00
3250;BME280;1637;42.020;23.992;2023-05-07T03:41:55;93071.78;;;9.44;100.00
3250;BME280;1637;42.020;23.992;2023-05-07T03:44:22;93065.22;;;9.70;100.00
3250;BME280;1637;42.020;23.992;2023-05-07T03:46:49;93077.72;;;9.94;100.00
3250;BME280;1637;42.020;23.992;2023-05-07T03:49:15;93072.34;;;9.98;100.00
3250;BME280;1637;42.020;23.992;2023-05-07T03:51:42;93078.25;;;10.41;100.00
3250;BME280;1637;42.020;23.992;2023-05-07T03:54:09;93080.03;;;10.62;99.86
3250;BME280;1637;42.020;23.992;2023-05-07T03:56:36;93084.25;;;10.63;98.79
3250;BME280;1637;42.020;23.992;2023-05-07T03:59:04;93079.91;;;11.24;94.98
3250;BME280;1637;42.020;23.992;2023-05-07T04:01:31;93086.88;;;11.18;93.69
3250;BME280;1637;42.020;23.992;2023-05-07T04:03:58;93083.63;;;11.38;93.10
3250;BME280;1637;42.020;23.992;2023-05-07T04:06:24;93078.81;;;11.97;88.59
3250;BME280;1637;42.020;23.992;2023-05-07T04:08:51;93079.88;;;11.65;90.29
3250;BME280;1637;42.020;23.992;2023-05-07T04:11:18;93082.44;;;11.83;89.77
3250;BME280;1637;42.020;23.992;2023-05-07T04:13:45;93082.50;;;12.37;86.48
3250;BME280;1637;42.020;23.992;2023-05-07T04:16:14;93092.66;;;12.53;84.16
3250;BME280;1637;42.020;23.992;2023-05-07T04:18:41;93060.25;;;12.06;84.64
3250;BME280;1637;42.020;23.992;2023-05-07T04:21:14;93084.41;;;12.67;83.48
3250;BME280;1637;42.020;23.992;2023-05-07T04:23:41;93092.16;;;13.12;80.67
3250;BME280;1637;42.020;23.992;2023-05-07T04:26:08;93098.78;;;13.54;78.67
3250;BME280;1637;42.020;23.992;2023-05-07T04:28:35;93096.75;;;13.38;79.46
3250;BME280;1637;42.020;23.992;2023-05-07T04:31:02;93095.09;;;13.44;78.54
3250;BME280;1637;42.020;23.992;2023-05-07T04:33:31;93110.56;;;13.13;80.33
3250;BME280;1637;42.020;23.992;2023-05-07T04:35:58;93083.03;;;13.52;78.33
3250;BME280;1637;42.020;23.992;2023-05-07T04:38:28;93091.59;;;13.24;80.52
3250;BME280;1637;42.020;23.992;2023-05-07T04:40:55;93089.16;;;13.53;80.18
3250;BME280;1637;42.020;23.992;2023-05-07T04:43:22;93090.59;;;13.81;78.01
3250;BME280;1637;42.020;23.992;2023-05-07T04:45:50;93101.63;;;13.66;79.34
3250;BME280;1637;42.020;23.992;2023-05-07T04:48:17;93069.53;;;13.32;80.92
3250;BME280;1637;42.020;23.992;2023-05-07T04:50:48;93099.38;;;13.85;79.73
3250;BME280;1637;42.020;23.992;2023-05-07T04:53:16;93051.16;;;14.30;75.12
3250;BME280;1637;42.020;23.992;2023-05-07T04:55:43;93099.44;;;14.40;75.83
3250;BME280;1637;42.020;23.992;2023-05-07T04:58:10;93090.06;;;14.65;75.84
3250;BME280;1637;42.020;23.992;2023-05-07T05:00:37;93103.75;;;14.90;74.07
3250;BME280;1637;42.020;23.992;2023-05-07T05:03:04;93097.94;;;14.75;74.83
3250;BME280;1637;42.020;23.992;2023-05-07T05:05:31;93100.59;;;14.39;77.63
3250;BME280;1637;42.020;23.992;2023-05-07T05:07:59;93106.06;;;14.16;78.36
3250;BME280;1637;42.020;23.992;2023-05-07T05:10:26;93108.78;;;14.72;76.90
3250;BME280;1637;42.020;23.992;2023-05-07T05:13:02;93105.69;;;15.38;73.26
3250;BME280;1637;42.020;23.992;2023-05-07T05:15:34;93113.13;;;15.51;72.19
3250;BME280;1637;42.020;23.992;2023-05-07T05:18:01;93161.69;;;15.99;70.55
3250;BME280;1637;42.020;23.992;2023-05-07T05:20:28;93118.44;;;16.28;70.59
3250;BME280;1637;42.020;23.992;2023-05-07T05:22:55;93113.34;;;16.30;69.74
3250;BME280;1637;42.020;23.992;2023-05-07T05:25:23;93111.00;;;16.99;67.58
3250;BME280;1637;42.020;23.992;2023-05-07T05:27:50;93106.00;;;16.85;67.48
3250;BME280;1637;42.020;23.992;2023-05-07T05:30:16;93113.44;;;16.68;67.97
3250;BME280;1637;42.020;23.992;2023-05-07T05:32:43;93112.94;;;16.99;67.61
3250;BME280;1637;42.020;23.992;2023-05-07T05:35:10;93107.31;;;16.93;67.75
3250;BME280;1637;42.020;23.992;2023-05-07T05:37:37;93108.38;;;17.21;65.49
3250;BME280;1637;42.020;23.992;2023-05-07T05:40:05;93109.38;;;17.02;67.00
3250;BME280;1637;42.020;23.992;2023-05-07T05:42:33;93113.63;;;17.50;64.75
3250;BME280;1637;42.020;23.992;2023-05-07T05:45:00;93107.09;;;17.00;66.59
3250;BME280;1637;42.020;23.992;2023-05-07T05:47:27;93109.63;;;17.55;64.97
3250;BME280;1637;42.020;23.992;2023-05-07T05:49:54;93113.75;;;17.46;64.18
3250;BME280;1637;42.020;23.992;2023-05-07T05:52:20;93108.69;;;17.36;65.71
3250;BME280;1637;42.020;23.992;2023-05-07T05:54:49;93102.47;;;17.48;65.62
3250;BME280;1637;42.020;23.992;2023-05-07T05:57:16;93102.00;;;17.75;66.50
3250;BME280;1637;42.020;23.992;2023-05-07T05:59:44;93109.97;;;18.57;62.04
3250;BME280;1637;42.020;23.992;2023-05-07T06:02:12;93105.84;;;18.65;61.36
3250;BME280;1637;42.020;23.992;2023-05-07T06:04:39;93111.28;;;18.65;61.55
3250;BME280;1637;42.020;23.992;2023-05-07T06:07:06;93117.38;;;18.56;61.93
3250;BME280;1637;42.020;23.992;2023-05-07T06:09:33;93109.28;;;18.87;61.50
3250;BME280;1637;42.020;23.992;2023-05-07T06:11:59;93105.16;;;19.13;60.71
3250;BME280;1637;42.020;23.992;2023-05-07T06:14:26;93105.31;;;19.59;59.22
3250;BME280;1637;42.020;23.992;2023-05-07T06:16:54;93108.34;;;19.61;58.57
3250;BME280;1637;42.020;23.992;2023-05-07T06:19:21;93110.13;;;20.83;55.87
3250;BME280;1637;42.020;23.992;2023-05-07T06:21:49;93115.19;;;21.08;53.72
3250;BME280;1637;42.020;23.992;2023-05-07T06:24:17;93105.06;;;20.03;56.84
3250;BME280;1637;42.020;23.992;2023-05-07T06:26:44;93105.16;;;20.72;53.82
3250;BME280;1637;42.020;23.992;2023-05-07T06:29:11;93103.06;;;19.76;57.40
3250;BME280;1637;42.020;23.992;2023-05-07T06:31:38;93108.50;;;20.76;54.83
3250;BME280;1637;42.020;23.992;2023-05-07T06:34:06;93098.06;;;20.75;55.32
3250;BME280;1637;42.020;23.992;2023-05-07T06:36:33;93101.72;;;20.53;56.24
3250;BME280;1637;42.020;23.992;2023-05-07T06:39:00;93096.28;;;20.53;54.67
3250;BME280;1637;42.020;23.992;2023-05-07T06:41:27;93089.63;;;20.36;56.69
3250;BME280;1637;42.020;23.992;2023-05-07T06:43:54;93086.81;;;19.36;59.78
3250;BME280;1637;42.020;23.992;2023-05-07T06:46:20;93094.88;;;21.18;54.18
3250;BME280;1637;42.020;23.992;2023-05-07T06:48:47;93098.50;;;21.24;53.62
3250;BME280;1637;42.020;23.992;2023-05-07T06:51:15;93090.28;;;20.91;55.30
3250;BME280;1637;42.020;23.992;2023-05-07T06:53:42;93090.28;;;21.34;55.23
3250;BME280;1637;42.020;23.992;2023-05-07T06:56:09;93090.25;;;21.67;52.93
3250;BME280;1637;42.020;23.992;2023-05-07T06:58:37;93092.16;;;21.99;53.08
3250;BME280;1637;42.020;23.992;2023-05-07T07:01:04;93090.13;;;21.85;52.98
3250;BME280;1637;42.020;23.992;2023-05-07T07:03:30;93091.88;;;21.07;55.13
3250;BME280;1637;42.020;23.992;2023-05-07T07:05:57;93095.00;;;21.57;53.95
3250;BME280;1637;42.020;23.992;2023-05-07T07:08:26;93096.59;;;22.50;53.00
3250;BME280;1637;42.020;23.992;2023-05-07T07:10:52;93102.94;;;23.00;50.08
3250;BME280;1637;42.020;23.992;2023-05-07T07:13:19;93099.59;;;22.37;50.48
3250;BME280;1637;42.020;23.992;2023-05-07T07:15:46;93098.78;;;22.60;49.98
3250;BME280;1637;42.020;23.992;2023-05-07T07:18:13;93095.66;;;23.26;49.52
3250;BME280;1637;42.020;23.992;2023-05-07T07:20:40;93098.44;;;23.61;48.21
3250;BME280;1637;42.020;23.992;2023-05-07T07:23:09;93100.50;;;23.67;47.75
3250;BME280;1637;42.020;23.992;2023-05-07T07:25:38;93085.91;;;23.75;48.89
3250;BME280;1637;42.020;23.992;2023-05-07T07:28:05;93088.41;;;23.23;48.46
3250;BME280;1637;42.020;23.992;2023-05-07T07:30:32;93089.25;;;23.15;48.80
3250;BME280;1637;42.020;23.992;2023-05-07T07:32:59;93094.38;;;23.57;48.41
3250;BME280;1637;42.020;23.992;2023-05-07T07:35:27;93092.97;;;22.97;48.78
3250;BME280;1637;42.020;23.992;2023-05-07T07:37:54;93088.44;;;22.65;50.12
3250;BME280;1637;42.020;23.992;2023-05-07T07:40:21;93095.28;;;23.19;49.07
3250;BME280;1637;42.020;23.992;2023-05-07T07:42:49;93089.13;;;23.74;49.12
3250;BME280;1637;42.020;23.992;2023-05-07T07:45:16;93093.66;;;24.17;47.63
3250;BME280;1637;42.020;23.992;2023-05-07T07:47:43;93089.91;;;22.21;49.91
3250;BME280;1637;42.020;23.992;2023-05-07T07:50:10;93093.81;;;22.88;48.79
3250;BME280;1637;42.020;23.992;2023-05-07T07:52:37;93087.94;;;23.10;50.11
3250;BME280;1637;42.020;23.992;2023-05-07T07:55:05;93087.34;;;23.91;45.08
3250;BME280;1637;42.020;23.992;2023-05-07T07:57:32;93057.25;;;23.71;44.72
3250;BME280;1637;42.020;23.992;2023-05-07T08:00:01;93102.00;;;22.88;46.11
3250;BME280;1637;42.020;23.992;2023-05-07T08:02:28;93092.19;;;23.11;46.38
3250;BME280;1637;42.020;23.992;2023-05-07T08:04:55;93075.75;;;20.16;52.53
3250;BME280;1637;42.020;23.992;2023-05-07T08:07:22;93069.41;;;21.31;51.06
3250;BME280;1637;42.020;23.992;2023-05-07T08:09:49;93083.41;;;23.22;47.49
3250;BME280;1637;42.020;23.992;2023-05-07T08:12:16;93079.47;;;23.08;46.72
3250;BME280;1637;42.020;23.992;2023-05-07T08:14:42;93075.66;;;23.70;46.91
3250;BME280;1637;42.020;23.992;2023-05-07T08:17:11;93074.22;;;23.95;41.55
3250;BME280;1637;42.020;23.992;2023-05-07T08:19:38;93077.28;;;23.27;43.71
3250;BME280;1637;42.020;23.992;2023-05-07T08:22:05;93067.09;;;22.10;46.88
3250;BME280;1637;42.020;23.992;2023-05-07T08:24:32;93082.69;;;22.92;42.37
3250;BME280;1637;42.020;23.992;2023-05-07T08:26:59;93070.72;;;23.04;43.11
3250;BME280;1637;42.020;23.992;2023-05-07T08:29:25;93071.59;;;23.30;42.75
3250;BME280;1637;42.020;23.992;2023-05-07T08:31:52;93066.97;;;23.72;40.02
3250;BME280;1637;42.020;23.992;2023-05-07T08:34:21;93072.78;;;23.24;40.95
3250;BME280;1637;42.020;23.992;2023-05-07T08:36:48;93062.16;;;22.52;42.44
3250;BME280;1637;42.020;23.992;2023-05-07T08:39:15;93063.44;;;21.65;43.80
3250;BME280;1637;42.020;23.992;2023-05-07T08:41:44;93047.22;;;21.71;46.24
3250;BME280;1637;42.020;23.992;2023-05-07T08:44:12;93035.06;;;22.63;45.29
3250;BME280;1637;42.020;23.992;2023-05-07T08:46:42;93053.69;;;23.29;43.90
3250;BME280;1637;42.020;23.992;2023-05-07T08:49:12;93049.19;;;23.61;42.01
3250;BME280;1637;42.020;23.992;2023-05-07T08:51:41;93047.66;;;22.32;43.50
3250;BME280;1637;42.020;23.992;2023-05-07T08:54:09;93040.84;;;20.84;47.19
3250;BME280;1637;42.020;23.992;2023-05-07T08:56:37;93038.53;;;21.57;45.64
3250;BME280;1637;42.020;23.992;2023-05-07T08:59:05;93043.28;;;22.10;44.79
3250;BME280;1637;42.020;23.992;2023-05-07T09:01:32;93032.91;;;21.37;45.79
3250;BME280;1637;42.020;23.992;2023-05-07T09:04:01;93037.19;;;20.27;47.96
3250;BME280;1637;42.020;23.992;2023-05-07T09:06:28;93033.59;;;21.47;44.39
3250;BME280;1637;42.020;23.992;2023-05-07T09:08:56;93039.56;;;22.52;41.54
3250;BME280;1637;42.020;23.992;2023-05-07T09:11:24;93041.28;;;23.49;41.97
3250;BME280;1637;42.020;23.992;2023-05-07T09:13:53;93052.38;;;24.21;39.58
3250;BME280;1637;42.020;23.992;2023-05-07T09:16:21;93027.56;;;24.50;38.03
3250;BME280;1637;42.020;23.992;2023-05-07T09:18:51;93052.28;;;24.10;39.06
3250;BME280;1637;42.020;23.992;2023-05-07T09:21:18;93048.44;;;23.26;39.51
3250;BME280;1637;42.020;23.992;2023-05-07T09:23:45;93049.94;;;23.62;41.05
3250;BME280;1637;42.020;23.992;2023-05-07T09:26:15;93052.00;;;22.97;42.50
3250;BME280;1637;42.020;23.992;2023-05-07T09:28:42;93045.31;;;23.88;41.57
3250;BME280;1637;42.020;23.992;2023-05-07T09:31:10;93051.25;;;23.67;41.46
3250;BME280;1637;42.020;23.992;2023-05-07T09:33:37;93044.06;;;24.30;40.53
3250;BME280;1637;42.020;23.992;2023-05-07T09:36:05;93040.59;;;24.35;39.85
3250;BME280;1637;42.020;23.992;2023-05-07T09:38:33;93041.41;;;24.67;39.25
3250;BME280;1637;42.020;23.992;2023-05-07T09:41:04;93047.03;;;24.12;39.74
3250;BME280;1637;42.020;23.992;2023-05-07T09:43:36;93042.09;;;24.36;36.71
3250;BME280;1637;42.020;23.992;2023-05-07T09:46:05;93048.81;;;25.55;34.74
3250;BME280;1637;42.020;23.992;2023-05-07T09:48:36;93037.56;;;24.85;38.14
3250;BME280;1637;42.020;23.992;2023-05-07T09:51:09;93023.66;;;24.31;38.28
3250;BME280;1637;42.020;23.992;2023-05-07T09:53:39;93021.38;;;23.83;40.29
3250;BME280;1637;42.020;23.992;2023-05-07T09:56:07;93034.53;;;23.09;39.39
3250;BME280;1637;42.020;23.992;2023-05-07T09:58:37;93033.56;;;23.12;40.25
3250;BME280;1637;42.020;23.992;2023-05-07T10:01:05;93031.72;;;22.74;41.22
3250;BME280;1637;42.020;23.992;2023-05-07T10:03:33;93033.06;;;23.63;39.44
3250;BME280;1637;42.020;23.992;2023-05-07T10:06:03;93032.78;;;23.61;40.72
3250;BME280;1637;42.020;23.992;2023-05-07T10:08:31;93022.72;;;24.40;39.10
3250;BME280;1637;42.020;23.992;2023-05-07T10:10:59;93029.72;;;23.74;39.11
3250;BME280;1637;42.020;23.992;2023-05-07T10:13:26;93032.16;;;23.52;40.17
3250;BME280;1637;42.020;23.992;2023-05-07T10:15:55;93026.03;;;23.57;39.34
3250;BME280;1637;42.020;23.992;2023-05-07T10:18:22;93017.44;;;24.10;37.59
3250;BME280;1637;42.020;23.992;2023-05-07T10:20:57;93013.78;;;24.19;38.39
3250;BME280;1637;42.020;23.992;2023-05-07T10:23:28;93019.09;;;23.41;40.54
3250;BME280;1637;42.020;23.992;2023-05-07T10:25:56;93015.19;;;23.48;39.22
3250;BME280;1637;42.020;23.992;2023-05-07T10:28:25;93013.13;;;23.43;41.38
3250;BME280;1637;42.020;23.992;2023-05-07T10:31:02;93004.78;;;23.31;41.54
3250;BME280;1637;42.020;23.992;2023-05-07T10:33:33;93011.91;;;23.09;39.55
3250;BME280;1637;42.020;23.992;2023-05-07T10:36:01;93002.47;;;23.24;40.16
3250;BME280;1637;42.020;23.992;2023-05-07T10:38:30;93004.94;;;23.08;42.22
3250;BME280;1637;42.020;23.992;2023-05-07T10:40:57;93008.94;;;22.92;42.16
3250;BME280;1637;42.020;23.992;2023-05-07T10:43:24;92991.94;;;22.09;44.25
3250;BME280;1637;42.020;23.992;2023-05-07T10:46:11;93022.03;;;22.73;41.70
3250;BME280;1637;42.020;23.992;2023-05-07T10:49:11;93009.97;;;22.94;40.15
3250;BME280;1637;42.020;23.992;2023-05-07T10:51:38;93002.09;;;23.17;40.05
3250;BME280;1637;42.020;23.992;2023-05-07T10:54:21;92969.34;;;22.08;41.57
3250;BME280;1637;42.020;23.992;2023-05-07T10:56:50;92998.25;;;22.29;43.40
3250;BME280;1637;42.020;23.992;2023-05-07T10:59:36;92986.78;;;23.05;43.39
3250;BME280;1637;42.020;23.992;2023-05-07T11:02:10;92992.19;;;23.19;42.07
3250;BME280;1637;42.020;23.992;2023-05-07T11:04:39;92982.78;;;23.20;43.28
3250;BME280;1637;42.020;23.992;2023-05-07T11:07:27;92981.53;;;22.72;44.00
3250;BME280;1637;42.020;23.992;2023-05-07T11:09:55;92985.03;;;22.87;43.71
3250;BME280;1637;42.020;23.992;2023-05-07T11:12:51;92987.84;;;21.51;45.39
3250;BME280;1637;42.020;23.992;2023-05-07T11:15:41;92986.25;;;21.98;45.86
3250;BME280;1637;42.020;23.992;2023-05-07T11:18:13;92990.63;;;22.34;43.47
3250;BME280;1637;42.020;23.992;2023-05-07T11:20:54;92991.47;;;22.84;42.72
3250;BME280;1637;42.020;23.992;2023-05-07T11:23:55;92983.66;;;23.12;42.81
3250;BME280;1637;42.020;23.992;2023-05-07T11:26:24;92997.19;;;22.56;41.31
3250;BME280;1637;42.020;23.992;2023-05-07T11:28:52;92992.75;;;22.74;41.96
3250;BME280;1637;42.020;23.992;2023-05-07T11:31:24;92992.19;;;22.70;41.83
3250;BME280;1637;42.020;23.992;2023-05-07T11:33:53;92973.13;;;23.05;42.03
3250;BME280;1637;42.020;23.992;2023-05-07T11:36:22;92991.72;;;23.21;41.20
3250;BME280;1637;42.020;23.992;2023-05-07T11:38:49;92974.22;;;22.78;41.38
3250;BME280;1637;42.020;23.992;2023-05-07T11:41:16;92985.31;;;22.89;41.71
3250;BME280;1637;42.020;23.992;2023-05-07T11:43:58;92975.69;;;22.93;41.55
3250;BME280;1637;42.020;23.992;2023-05-07T11:46:25;92988.03;;;22.89;42.18
3250;BME280;1637;42.020;23.992;2023-05-07T11:48:54;92978.84;;;22.13;43.23
3250;BME280;1637;42.020;23.992;2023-05-07T11:51:23;92986.84;;;22.16;44.53
3250;BME280;1637;42.020;23.992;2023-05-07T11:53:51;92986.09;;;22.31;45.39
3250;BME280;1637;42.020;23.992;2023-05-07T11:56:18;92982.03;;;22.70;43.41
3250;BME280;1637;42.020;23.992;2023-05-07T11:58:47;92979.03;;;22.53;44.13
3250;BME280;1637;42.020;23.992;2023-05-07T12:01:14;92969.91;;;22.27;43.31
3250;BME280;1637;42.020;23.992;2023-05-07T12:03:43;92948.38;;;22.29;44.03
3250;BME280;1637;42.020;23.992;2023-05-07T12:06:13;92967.94;;;22.42;43.89
3250;BME280;1637;42.020;23.992;2023-05-07T12:08:41;92969.88;;;22.71;44.06
3250;BME280;1637;42.020;23.992;2023-05-07T12:11:10;92967.22;;;23.26;42.56
3250;BME280;1637;42.020;23.992;2023-05-07T12:13:39;92962.00;;;23.49;41.36
3250;BME280;1637;42.020;23.992;2023-05-07T12:16:06;92983.59;;;23.06;42.30
3250;BME280;1637;42.020;23.992;2023-05-07T12:18:35;92967.53;;;22.79;41.71
3250;BME280;1637;42.020;23.992;2023-05-07T12:21:02;92966.91;;;22.40;43.67
3250;BME280;1637;42.020;23.992;2023-05-07T12:23:31;92964.38;;;22.36;42.38
3250;BME280;1637;42.020;23.992;2023-05-07T12:25:59;92951.38;;;22.31;43.09
3250;BME280;1637;42.020;23.992;2023-05-07T12:28:26;92942.97;;;22.79;42.19
3250;BME280;1637;42.020;23.992;2023-05-07T12:30:53;92941.41;;;22.92;42.16
3250;BME280;1637;42.020;23.992;2023-05-07T12:33:24;92944.44;;;23.15;44.23
3250;BME280;1637;42.020;23.992;2023-05-07T12:35:53;92935.38;;;23.23;42.19
3250;BME280;1637;42.020;23.992;2023-05-07T12:38:20;92945.38;;;23.12;42.03
3250;BME280;1637;42.020;23.992;2023-05-07T12:40:49;92939.91;;;22.91;43.06
3250;BME280;1637;42.020;23.992;2023-05-07T12:43:17;92940.00;;;23.38;42.29
3250;BME280;1637;42.020;23.992;2023-05-07T12:45:46;92928.69;;;23.24;42.37
3250;BME280;1637;42.020;23.992;2023-05-07T12:48:13;92932.47;;;23.12;42.84
3250;BME280;1637;42.020;23.992;2023-05-07T12:50:40;92932.19;;;23.10;42.75
3250;BME280;1637;42.020;23.992;2023-05-07T12:53:09;92946.56;;;22.55;42.99
3250;BME280;1637;42.020;23.992;2023-05-07T12:55:42;92929.94;;;22.39;43.98
3250;BME280;1637;42.020;23.992;2023-05-07T12:58:16;92917.44;;;22.03;43.54
3250;BME280;1637;42.020;23.992;2023-05-07T13:00:43;92925.88;;;22.05;43.50
3250;BME280;1637;42.020;23.992;2023-05-07T13:03:11;92921.75;;;22.39;44.42
3250;BME280;1637;42.020;23.992;2023-05-07T13:05:38;92921.00;;;22.38;44.38
3250;BME280;1637;42.020;23.992;2023-05-07T13:08:05;92924.94;;;22.37;43.40
3250;BME280;1637;42.020;23.992;2023-05-07T13:10:34;92925.06;;;22.13;43.19
3250;BME280;1637;42.020;23.992;2023-05-07T13:13:01;92930.78;;;22.15;43.38
3250;BME280;1637;42.020;23.992;2023-05-07T13:15:30;92918.94;;;22.18;43.35